• Join FlightAware (Why Join?)
  • Login
  • US Flag GB Flag 
18:18 EDT


 

Airport Tracker/Info


-or-


 

Live Flight TrackerFlight Track Log ✈ AWE3418 ✈ 25-Apr-2013 ✈ KCMH - KPHL

Flight Track Log - Related Links

Times and Time Zones

All times are in EDT time to prevent confusion due to time zone crossing. See the AWE3418 flight status page for this flight to view local times or setup timezone preferences in your user account.

Time Position Orientation Groundspeed Altitude Reporting Facility
EDT Latitude Longitude Course Direction KTS MPH feet Rate Location/Type
16:21 40.0022 -82.9128 81° East 172 198 1,500  Level Indianapolis Center
16:21 40.0014 -82.9264 265° West 133 153 2,300 1,860 Climbing Indianapolis Center
16:22 39.9928 -82.9625 253° West 163 188 3,400 2,400 Climbing Indianapolis Center
16:22 39.9844 -82.9897 248° West 196 226 4,800 2,460 Climbing Indianapolis Center
16:23 40.0384 -82.4831 83° East  Level FlightAware Approximate
16:23 39.9481 -82.9828 172° South 219 252 6,000  Level Indianapolis Center
16:23 39.9372 -82.9489 113° Southeast 292 336 7,200 3,000 Climbing Indianapolis Center
16:24 40.0529 -82.3481 79° East  Level FlightAware Approximate
16:24 39.9339 -82.8814 94° East 292 336 9,100  Level Indianapolis Center
16:25 40.0735 -82.2144 79° East  Level FlightAware Approximate
16:25 39.9317 -82.7669 91° East 310 357 12,100  Level Indianapolis Center
16:26 40.0921 -82.0803 81° East  Level FlightAware Approximate
16:26 39.9514 -82.6444 78° East 343 395 14,500  Level Indianapolis Center
16:27 39.9747 -82.4953 78° East 355 409 17,500 2,340 Climbing Indianapolis Center
16:28 39.9956 -82.3608 79° East 373 429 19,400 1,680 Climbing Indianapolis Center
16:29 40.0178 -82.2183 78° East 393 452 21,000 720 Climbing Indianapolis Center
16:30 40.0403 -82.0739 78° East 402 463 21,000  Level Indianapolis Center
16:31 40.0614 -81.9300 79° East 402 463 21,000 540 Level Indianapolis Center
16:32 40.0842 -81.7867 78° East 401 461 22,200 1,620 Climbing Indianapolis Center
16:33 40.1081 -81.6261 79° East 413 475 24,400 1,920 Climbing Indianapolis Center
16:34 40.1308 -81.4708 79° East 429 494 26,200 1,800 Climbing Indianapolis Center
16:34 40.1436 -81.3897 78° East 423 487 27,000 1,500 Climbing Cleveland Center
16:35 40.1778 -81.2325 74° East 430 495 28,300 1,320 Climbing Cleveland Center
16:36 40.2286 -81.0781 67° East 442 509 29,700 1,320 Climbing Cleveland Center
16:37 40.2792 -80.9206 67° East 448 516 31,000 600 Climbing Cleveland Center
16:38 40.3025 -80.7572 79° East 454 522 31,000  Level Cleveland Center
16:39 40.3047 -80.5914 89° East 449 517 31,000  Level Cleveland Center
16:40 40.3067 -80.4253 89° East 449 517 31,000  Level Cleveland Center
16:41 40.3086 -80.2592 89° East 449 517 31,000  Level Cleveland Center
16:42 40.3081 -80.0958 90° East 456 525 31,000  Level Cleveland Center
16:43 40.3114 -79.9461 88° East 456 525 31,000  Level Cleveland Center
16:44 40.3144 -79.7772 89° East 456 525 31,000  Level Cleveland Center
16:45 40.3153 -79.6111 90° East 456 525 31,000  Level Cleveland Center
16:46 40.3158 -79.4450 90° East 456 525 31,000  Level Cleveland Center
16:47 40.3139 -79.2761 91° East 456 525 31,000  Level Cleveland Center
16:48 40.3139 -79.0992 90° East 466 536 31,000  Level Cleveland Center
16:49 40.3158 -78.9247 89° East 471 542 31,000 -240 Level Cleveland Center
16:50 40.3150 -78.7506 90° East 477 549 30,600 -660 Descending Cleveland Center
16:51 40.3144 -78.5817 90° East 477 549 29,700 -960 Descending Cleveland Center
16:52 40.3153 -78.4103 90° East 477 549 28,700 -1,020 Descending Cleveland Center
16:54 40.3147 -78.1431 90° East 472 543 27,100 -1,380 Descending New York Center
16:55 40.3122 -77.9822 91° East 457 526 25,100 -1,080 Descending New York Center
16:56 40.3119 -77.8158 90° East 457 526 25,000 -660 Descending New York Center
16:57 40.3089 -77.6522 91° East 457 526 23,800 -1,800 Descending New York Center
16:58 40.3067 -77.4750 91° East 447 514 21,500 -1,380 Descending New York Center
16:59 40.3069 -77.3200 90° East 437 503 21,000 -960 Descending New York Center
17:01 40.3014 -77.1173 92° East  Level FlightAware Approximate
17:01 40.2933 -77.0356 92° East 418 481 18,700  Level New York Center
17:02 40.2594 -76.8828 106° East 399 459 18,000 -1,440 Descending New York Center
17:03 40.2303 -76.7606 107° East 399 459 15,900 -1,800 Descending New York Center
17:04 40.1994 -76.6300 107° East 381 438 14,500 -1,380 Descending New York Center
17:05 40.1667 -76.4889 107° East 371 427 13,200 -1,260 Descending New York Center
17:06 40.1372 -76.3642 107° East 371 427 12,000 -1,200 Descending New York Center
17:07 40.1197 -76.2514 101° East 364 419 10,900 -1,200 Descending New York Center
17:08 40.1103 -76.1367 96° East 332 382 9,700 -1,200 Descending New York Center
17:09 40.1011 -76.0167 96° East 309 356 8,600 -900 Descending New York Center
17:10 40.0933 -75.9075 95° East 304 350 8,000 -780 Descending New York Center
17:11 40.0853 -75.8036 96° East 290 334 7,100 -1,020 Descending New York Center
17:12 40.0792 -75.7028 94° East 283 326 6,000 -660 Descending New York Center
17:13 40.0731 -75.6019 94° East 278 320 5,900  Descending New York Center
17:14 40.0686 -75.5042 93° East 278 320 6,000  Climbing New York Center
17:15 40.0644 -75.4008 93° East 278 320 6,000  Level New York Center
17:16 40.0536 -75.3022 98° East 273 314 6,000 -60 Level New York Center
17:17 40.0333 -75.2333 111° Southeast 259 298 5,900  Descending Philadelphia TRACON
17:18 40.0167 -75.1500 105° East 210 242 6,000  Climbing Philadelphia TRACON
17:19 40.0000 -75.0833 108° East 217 250 5,900 -300 Descending Philadelphia TRACON
17:20 40.0000 -75.0167 90° East 193 222 5,500 -900 Descending Philadelphia TRACON
17:21 39.9667 -74.9833 143° Southeast 173 199 4,100 -1,320 Descending Philadelphia TRACON
17:22 39.9333 -75.0167 217° Southwest 168 193 2,900 -840 Descending Philadelphia TRACON
17:23 39.9000 -75.0667 229° Southwest 169 194 2,600 -360 Descending Philadelphia TRACON